• Join FlightAware (Why Join?)
  • Login
  • US Flag 
02:34AM EST


 

Airport Tracker/Info


-or-


 

Live Flight TrackerFlight Track Log ✈ JIA2564 ✈ 02-May-2013 ✈ KBTR - KCLT

Flight Track Log - Related Links

Times and Time Zones

All times are in EDT time to prevent confusion due to time zone crossing. See the JIA2564 flight status page for this flight to view local times or setup timezone preferences in your user account.

Time Position Orientation Groundspeed Altitude Reporting Facility
EDT Latitude Longitude Course Direction KTS MPH feet Rate Location/Type
08:05AM 30.5683 -91.0803 83° East 200 230 33,000  Level Houston Center
08:06AM 30.5864 -91.0175 72° East 238 274 4,900 -12,000 Descending Houston Center
08:07AM 30.6197 -90.9183 69° East 264 304 8,400 2,460 Climbing Houston Center
08:08AM 30.6472 -90.8294 70° East 285 328 10,000 1,260 Climbing Houston Center
08:09AM 30.7455 -90.4923 60° Northeast  Level FlightAware Approximate
08:09AM 30.6819 -90.7306 68° East 324 373 11,000  Level Houston Center
08:10AM 30.7600 -90.3835 83° East  Level FlightAware Approximate
08:10AM 30.7192 -90.6292 67° East 340 391 13,700  Level Houston Center
08:11AM 30.7581 -90.5306 65° Northeast 336 387 16,300 2,460 Climbing Houston Center
08:12AM 30.7917 -90.4353 68° East 322 371 18,800 1,800 Climbing Houston Center
08:13AM 30.8286 -90.3375 66° East 326 375 20,000 1,260 Climbing Houston Center
08:14AM 30.8681 -90.2311 67° East 349 402 21,400 1,200 Climbing Houston Center
08:15AM 30.9075 -90.1233 67° East 357 411 22,500 960 Climbing Houston Center
08:16AM 30.9475 -90.0097 68° East 371 427 23,400 1,020 Climbing Houston Center
08:17AM 30.9992 -89.8708 67° East 384 442 24,700 1,140 Climbing Houston Center
08:18AM 31.0408 -89.7536 67° East 389 448 25,800 900 Climbing Houston Center
08:19AM 31.0833 -89.6369 67° East 390 449 26,600 840 Climbing Houston Center
08:20AM 31.1275 -89.5164 67° East 400 460 27,600 1,020 Climbing Houston Center
08:21AM 31.1689 -89.4006 67° East 388 447 28,800 960 Climbing Houston Center
08:22AM 31.2103 -89.2844 67° East 387 445 29,600 600 Climbing Houston Center
08:23AM 31.2525 -89.1650 68° East 395 455 30,100 480 Climbing Houston Center
08:24AM 31.2947 -89.0483 67° East 396 456 30,600 480 Climbing Houston Center
08:25AM 31.3369 -88.9253 68° East 404 465 31,100 480 Climbing Houston Center
08:26AM 31.3892 -88.7761 68° East 411 473 31,700 480 Climbing Houston Center
08:27AM 31.4339 -88.6503 67° East 416 479 32,200 480 Climbing Houston Center
08:29AM 31.4783 -88.5239 68° East 417 480 32,800 360 Climbing Houston Center
08:30AM 31.5228 -88.3967 68° East 418 481 33,000 120 Climbing Houston Center
08:30AM 31.5422 -88.3442 66° East 412 474 33,000  Level Atlanta Center
08:31AM 31.5886 -88.2122 68° East 423 487 33,000 120 Level Atlanta Center
08:32AM 31.6347 -88.0803 68° East 429 494 33,300 360 Climbing Atlanta Center
08:33AM 31.6806 -87.9506 67° East 429 494 33,800 480 Climbing Atlanta Center
08:34AM 31.7242 -87.8183 69° East 429 494 34,300 480 Climbing Atlanta Center
08:35AM 31.7700 -87.6908 67° East 429 494 34,800 300 Climbing Atlanta Center
08:36AM 31.8133 -87.5606 69° East 429 494 35,000 60 Climbing Atlanta Center
08:37AM 31.8586 -87.4303 68° East 429 494 35,000  Level Atlanta Center
08:38AM 31.8956 -87.3069 71° East 429 494 35,000  Level Atlanta Center
08:39AM 31.9406 -87.1739 68° East 429 494 35,000  Level Atlanta Center
08:40AM 31.9836 -87.0433 69° East 429 494 35,000  Level Atlanta Center
08:41AM 32.0283 -86.9100 68° East 429 494 35,000  Level Atlanta Center
08:42AM 32.0711 -86.7792 69° East 423 487 35,000  Level Atlanta Center
08:43AM 32.1200 -86.6431 67° East 423 487 35,000  Level Atlanta Center
08:44AM 32.1600 -86.5169 69° East 418 481 35,000  Level Atlanta Center
08:45AM 32.1956 -86.4147 68° East 412 474 35,000  Level Atlanta Center
08:46AM 32.2608 -86.2692 62° Northeast 406 467 35,000  Level Atlanta Center
08:47AM 32.3336 -86.1678 50° Northeast 412 474 35,000  Level Atlanta Center
08:48AM 32.4189 -86.0639 46° Northeast 417 480 35,000  Level Atlanta Center
08:49AM 32.4936 -85.9597 50° Northeast 417 480 35,000  Level Atlanta Center
08:50AM 32.5725 -85.8531 49° Northeast 427 491 35,000  Level Atlanta Center
08:51AM 32.6511 -85.7461 49° Northeast 427 491 35,000  Level Atlanta Center
08:52AM 32.7297 -85.6389 49° Northeast 427 491 35,000  Level Atlanta Center
08:53AM 32.8083 -85.5317 49° Northeast 427 491 35,000  Level Atlanta Center
08:54AM 32.8869 -85.4242 49° Northeast 427 491 35,000  Level Atlanta Center
08:55AM 32.9672 -85.3139 49° Northeast 427 491 35,000  Level Atlanta Center
08:56AM 33.0456 -85.2086 48° Northeast 427 491 35,000  Level Atlanta Center
08:57AM 33.1281 -85.1006 48° Northeast 427 491 35,000  Level Atlanta Center
08:58AM 33.2083 -84.9947 48° Northeast 432 497 35,000  Level Atlanta Center
08:59AM 33.2861 -84.8886 49° Northeast 432 497 35,000  Level Atlanta Center
09:00AM 33.3578 -84.7972 47° Northeast 427 491 35,000  Level Atlanta Center
09:01AM 33.4397 -84.6886 48° Northeast 419 482 35,000 -480 Level Atlanta Center
09:02AM 33.5175 -84.5844 48° Northeast 419 482 34,100 -1,020 Descending Atlanta Center
09:03AM 33.6014 -84.4653 50° Northeast 419 482 33,000 -1,020 Descending Atlanta Center
09:04AM 33.6561 -84.3358 63° Northeast 419 482 32,100 -960 Descending Atlanta Center
09:05AM 33.6939 -84.1986 72° East 419 482 31,100 -600 Descending Atlanta Center
09:06AM 33.7317 -84.0664 71° East 419 482 31,000 -60 Descending Atlanta Center
09:07AM 33.7669 -83.9339 72° East 414 476 31,000  Level Atlanta Center
09:08AM 33.8106 -83.7939 69° East 426 490 31,000  Level Atlanta Center
09:09AM 33.8458 -83.6536 73° East 431 496 31,000 -360 Level Atlanta Center
09:10AM 33.8869 -83.5183 70° East 436 502 30,300 -900 Descending Atlanta Center
09:11AM 33.9219 -83.3881 72° East 425 489 29,300 -660 Descending Atlanta Center
09:12AM 33.9608 -83.2622 70° East 404 465 29,000 -180 Descending Atlanta Center
09:13AM 34.0164 -83.1467 60° Northeast 398 458 29,000 -60 Level Atlanta Center
09:14AM 34.0739 -83.0206 61° Northeast 403 464 28,900 -660 Descending Atlanta Center
09:15AM 34.1292 -82.8944 62° Northeast 413 475 27,700 -1,440 Descending Atlanta Center
09:16AM 34.1844 -82.7781 60° Northeast 413 475 26,100 -1,560 Descending Atlanta Center
09:17AM 34.2353 -82.6644 62° Northeast 394 453 24,600 -1,080 Descending Atlanta Center
09:18AM 34.2861 -82.5506 62° Northeast 389 448 24,000 -300 Descending Atlanta Center
09:19AM 34.3369 -82.4389 61° Northeast 384 442 24,000 -60 Level Atlanta Center
09:20AM 34.3897 -82.3244 61° Northeast 379 436 23,900 -960 Descending Atlanta Center
09:21AM 34.4381 -82.2153 62° Northeast 379 436 22,100 -1,800 Descending Atlanta Center
09:22AM 34.4825 -82.1161 61° Northeast 358 412 20,300 -1,800 Descending Atlanta Center
09:23AM 34.5228 -82.0194 63° Northeast 334 384 18,600 -1,620 Descending Atlanta Center
09:24AM 34.5650 -81.9225 62° Northeast 323 372 17,100 -1,680 Descending Atlanta Center
09:25AM 34.6069 -81.8281 62° Northeast 323 372 15,300 -1,680 Descending Atlanta Center
09:26AM 34.6372 -81.7592 62° Northeast 314 361 13,800 -1,800 Descending Atlanta Center
09:27AM 34.6792 -81.6669 61° Northeast 289 333 11,800 -1,860 Descending Atlanta Center
09:27AM 34.7031 -81.6083 64° Northeast 288 331 11,000 -840 Descending Atlanta Center
09:28AM 34.7150 -81.5775 65° Northeast 282 325 11,000  Level Atlanta Center
09:28AM 34.7453 -81.5286 53° Northeast 286 329 11,000  Level Atlanta Center
09:29AM 34.7658 -81.5053 43° Northeast 287 330 11,000 -120 Level Atlanta Center
09:30AM 34.8000 -81.4536 51° Northeast 293 337 10,900 -540 Descending Atlanta Center
09:30AM 34.8100 -81.4228 68° East 282 325 10,500 -1,380 Descending Atlanta Center
09:31AM 34.8108 -81.3672 89° East 261 300 9,500 -1,500 Descending Atlanta Center
09:31AM 34.8081 -81.3344 96° East 250 288 9,000 -1,560 Descending Atlanta Center
09:31AM 34.8006 -81.2867 101° East 255 293 8,100 -1,620 Descending Atlanta Center
09:32AM 34.7933 -81.2439 102° East 250 288 7,400 -1,020 Descending Atlanta Center
09:33AM 34.8025 -81.1878 79° East 246 283 7,000 -540 Descending Atlanta Center
09:33AM 34.8061 -81.1650 79° East 244 281 6,900  Descending Atlanta Center
09:33AM 34.8117 -81.1269 80° East 206 237 7,000  Climbing Atlanta Center
09:34AM 34.8192 -81.0936 75° East 222 255 6,900 -840 Descending Atlanta Center
09:35AM 34.8286 -81.0531 74° East 208 239 6,100 -1,320 Descending Atlanta Center
09:35AM 34.8469 -81.0369 36° Northeast 197 227 5,600 -1,380 Descending Atlanta Center
09:36AM 34.8797 -81.0131 31° Northeast 220 253 4,700 -1,320 Descending Atlanta Center
09:36AM 34.8961 -80.9972 38° Northeast 197 227 4,300 -660 Descending Atlanta Center
09:37AM 34.9372 -80.9731 26° Northeast 211 243 4,000 -180 Descending Atlanta Center
09:38AM 34.9953 -80.9581 12° North 214 246 4,000 -180 Level Atlanta Center
09:39AM 35.0494 -80.9536 North 195 224 3,700 -300 Descending Atlanta Center